createdAt,value
2022-11-22T00:01:36.747Z,96330.13
2022-11-22T00:04:05.191Z,96333.56
2022-11-22T00:06:33.446Z,96325.66
2022-11-22T00:09:01.632Z,96314.63
2022-11-22T00:11:29.752Z,96322.94
2022-11-22T00:13:59.408Z,96321.25
2022-11-22T00:16:27.590Z,96310.81
2022-11-22T00:18:55.882Z,96290.34
2022-11-22T00:21:24.063Z,96298.09
2022-11-22T00:23:57.586Z,96291.28
2022-11-22T00:26:25.850Z,96287.84
2022-11-22T00:28:54.071Z,96280.91
2022-11-22T00:31:23.920Z,96283.28
2022-11-22T00:33:52.020Z,96281.44
2022-11-22T00:36:20.135Z,96281.44
2022-11-22T00:38:48.281Z,96254.31
2022-11-22T00:41:16.773Z,96193.41
2022-11-22T00:43:45.018Z,96288.47
2022-11-22T00:46:13.190Z,96258.66
2022-11-22T00:48:42.821Z,96295.56
2022-11-22T00:51:11.045Z,96284.38
2022-11-22T00:53:39.185Z,96291.28
2022-11-22T00:56:07.538Z,96252.25
2022-11-22T00:58:35.740Z,96294.84
2022-11-22T01:01:04.016Z,96296.69
2022-11-22T01:03:32.268Z,96293.19
2022-11-22T01:06:01.868Z,96272.66
2022-11-22T01:08:30.085Z,96252.09
2022-11-22T01:10:58.937Z,96263.81
2022-11-22T01:13:28.475Z,96284.13
2022-11-22T01:16:00.528Z,96262.53
2022-11-22T01:18:28.772Z,96227.88
2022-11-22T01:20:56.955Z,96280.56
2022-11-22T01:23:26.638Z,96255.41
2022-11-22T01:25:54.892Z,96289.69
2022-11-22T01:28:23.093Z,96263.88
2022-11-22T01:30:51.807Z,96286.06
2022-11-22T01:33:20.440Z,96288.84
2022-11-22T01:35:48.732Z,96293.94
2022-11-22T01:38:17.018Z,96224.13
2022-11-22T01:40:46.622Z,96285.41
2022-11-22T01:43:19.202Z,96212.09
2022-11-22T01:45:50.197Z,96219.38
2022-11-22T01:48:37.916Z,96172.25
2022-11-22T01:51:14.698Z,96288.84
2022-11-22T01:53:43.233Z,96162.00
2022-11-22T01:56:17.144Z,96285.44
2022-11-22T01:58:48.935Z,96265.81
2022-11-22T02:01:17.157Z,96247.81
2022-11-22T02:03:50.976Z,96280.22
2022-11-22T02:06:20.094Z,96294.78
2022-11-22T02:08:56.516Z,96260.28
2022-11-22T02:11:33.596Z,96246.69
2022-11-22T02:14:03.057Z,96289.56
2022-11-22T02:16:31.295Z,96252.22
2022-11-22T02:18:59.401Z,96252.31
2022-11-22T02:21:27.729Z,96227.47
2022-11-22T02:24:02.398Z,96263.38
2022-11-22T02:26:33.671Z,96255.53
2022-11-22T02:29:06.057Z,96192.59
2022-11-22T02:31:46.060Z,96264.13
2022-11-22T02:34:15.291Z,96264.06
2022-11-22T02:36:46.800Z,96248.47
2022-11-22T02:39:20.636Z,96164.75
2022-11-22T02:41:51.256Z,96232.75
2022-11-22T02:44:20.636Z,96197.91
2022-11-22T02:46:50.664Z,96222.47
2022-11-22T02:49:20.242Z,96218.16
2022-11-22T02:51:49.241Z,96228.41
2022-11-22T02:54:17.544Z,96229.25
2022-11-22T02:56:46.261Z,96229.22
2022-11-22T02:59:16.299Z,96218.00
2022-11-22T03:01:46.081Z,96217.94
2022-11-22T03:04:24.962Z,96211.03
2022-11-22T03:06:55.743Z,96168.69
2022-11-22T03:09:24.175Z,96213.03
2022-11-22T03:11:52.516Z,96210.41
2022-11-22T03:14:22.052Z,96215.56
2022-11-22T03:16:50.303Z,96190.69
2022-11-22T03:19:18.662Z,96208.44
2022-11-22T03:21:46.790Z,96214.41
2022-11-22T03:24:15.007Z,96211.03
2022-11-22T03:26:43.203Z,96187.25
2022-11-22T03:29:11.359Z,96200.72
2022-11-22T03:31:40.850Z,96170.78
2022-11-22T03:34:09.099Z,96170.66
2022-11-22T03:36:37.272Z,96191.09
2022-11-22T03:39:05.424Z,96190.25
2022-11-22T03:41:33.542Z,96183.25
2022-11-22T03:44:01.785Z,96038.81
2022-11-22T03:46:29.965Z,96187.59
2022-11-22T03:48:59.557Z,96162.16
2022-11-22T03:51:27.961Z,96173.84
2022-11-22T03:53:56.122Z,96176.44
2022-11-22T03:56:24.237Z,96176.44
2022-11-22T03:58:52.358Z,96113.25
2022-11-22T04:01:20.555Z,96153.28
2022-11-22T04:03:48.774Z,96173.69
2022-11-22T04:06:18.289Z,96182.22
2022-11-22T04:08:46.501Z,96178.69
2022-11-22T04:11:14.733Z,96172.53
2022-11-22T04:14:00.275Z,96180.25
2022-11-22T04:16:28.377Z,96191.47
2022-11-22T04:18:56.562Z,96186.44
2022-11-22T04:21:36.992Z,96184.13
2022-11-22T04:24:24.111Z,96178.97
2022-11-22T04:26:52.751Z,96159.38
2022-11-22T04:29:21.357Z,96182.31
2022-11-22T04:32:08.068Z,96159.84
2022-11-22T04:34:36.745Z,96211.81
2022-11-22T04:37:07.000Z,96163.88
2022-11-22T04:39:35.568Z,96165.81
2022-11-22T04:42:21.098Z,96169.31
2022-11-22T04:44:49.280Z,96162.53
2022-11-22T04:47:36.036Z,96153.03
2022-11-22T04:50:25.694Z,96141.00
2022-11-22T04:52:55.192Z,96141.00
2022-11-22T04:55:23.679Z,96150.44
2022-11-22T04:57:57.490Z,96113.00
2022-11-22T05:00:28.387Z,96120.47
2022-11-22T05:02:56.660Z,96132.19
2022-11-22T05:05:24.982Z,96125.41
2022-11-22T05:07:53.360Z,96131.56
2022-11-22T05:10:26.836Z,96121.28
2022-11-22T05:12:55.963Z,96122.25
2022-11-22T05:15:24.147Z,96129.13
2022-11-22T05:17:52.281Z,96098.50
2022-11-22T05:20:20.552Z,96109.13
2022-11-22T05:23:06.272Z,96096.34
2022-11-22T05:25:35.940Z,96096.44
2022-11-22T05:28:04.128Z,96106.53
2022-11-22T05:30:32.263Z,96113.41
2022-11-22T05:33:00.501Z,96106.44
2022-11-22T05:35:28.658Z,96106.28
2022-11-22T05:37:57.599Z,96085.44
2022-11-22T05:40:25.838Z,96114.56
2022-11-22T05:42:55.465Z,96104.31
2022-11-22T05:45:23.641Z,96107.69
2022-11-22T05:47:51.773Z,96084.97
2022-11-22T05:50:19.969Z,96082.59
2022-11-22T05:52:48.101Z,96121.97
2022-11-22T05:55:16.377Z,96120.50
2022-11-22T05:57:44.528Z,96106.41
2022-11-22T06:00:14.927Z,96126.84
2022-11-22T06:02:43.058Z,96138.69
2022-11-22T06:05:11.293Z,96121.47
2022-11-22T06:07:39.549Z,96122.25
2022-11-22T06:10:08.509Z,96139.44
2022-11-22T06:12:37.056Z,96133.25
2022-11-22T06:15:05.703Z,96147.91
2022-11-22T06:17:35.288Z,96129.28
2022-11-22T06:20:06.420Z,96145.66
2022-11-22T06:22:35.089Z,96150.84
2022-11-22T06:25:03.425Z,96145.59
2022-11-22T06:27:31.637Z,96144.66
2022-11-22T06:29:59.827Z,96151.78
2022-11-22T06:32:28.004Z,96127.94
2022-11-22T06:34:57.595Z,96146.59
2022-11-22T06:37:25.781Z,96109.91
2022-11-22T06:39:53.850Z,96147.25
2022-11-22T06:42:21.974Z,96134.19
2022-11-22T06:44:50.120Z,96132.25
2022-11-22T06:47:18.774Z,96111.81
2022-11-22T06:49:47.030Z,96126.16
2022-11-22T06:52:16.508Z,96107.97
2022-11-22T06:54:44.721Z,96097.59
2022-11-22T06:57:14.847Z,96011.69
2022-11-22T06:59:42.964Z,96097.66
2022-11-22T07:02:13.200Z,96102.31
2022-11-22T07:05:02.217Z,96101.88
2022-11-22T07:07:30.984Z,96074.09
2022-11-22T07:09:59.221Z,96124.47
2022-11-22T07:12:27.969Z,96098.59
2022-11-22T07:14:56.120Z,96128.31
2022-11-22T07:17:24.435Z,96107.00
2022-11-22T07:19:52.600Z,96133.44
2022-11-22T07:22:20.818Z,96131.75
2022-11-22T07:24:50.365Z,96140.38
2022-11-22T07:27:18.537Z,96136.03
2022-11-22T07:29:46.770Z,96115.63
2022-11-22T07:32:14.963Z,96140.22
2022-11-22T07:34:43.174Z,96118.22
2022-11-22T07:37:11.365Z,96139.16
2022-11-22T07:39:39.967Z,96123.88
2022-11-22T07:42:09.628Z,96141.84
2022-11-22T07:44:37.788Z,96149.56
2022-11-22T07:47:06.107Z,96141.75
2022-11-22T07:49:34.375Z,96083.97
2022-11-22T07:52:02.769Z,96130.69
2022-11-22T07:54:30.974Z,96145.78
2022-11-22T07:56:59.167Z,96145.69
2022-11-22T07:59:29.150Z,96138.88
2022-11-22T08:01:57.507Z,96110.69
2022-11-22T08:04:25.731Z,96157.66
2022-11-22T08:06:53.904Z,96129.63
2022-11-22T08:09:22.137Z,96145.84
2022-11-22T08:11:50.306Z,96151.25
2022-11-22T08:14:18.444Z,96151.22
2022-11-22T08:16:48.089Z,96156.50
2022-11-22T08:19:18.206Z,96167.72
2022-11-22T08:21:46.691Z,96138.72
2022-11-22T08:24:15.009Z,96162.53
2022-11-22T08:26:43.525Z,96073.50
2022-11-22T08:29:14.557Z,96165.19
2022-11-22T08:31:42.949Z,96161.56
2022-11-22T08:34:12.574Z,96164.69
2022-11-22T08:36:40.784Z,96166.44
2022-11-22T08:39:09.171Z,96154.38
2022-11-22T08:41:37.344Z,96161.97
2022-11-22T08:44:05.817Z,96159.31
2022-11-22T08:46:34.026Z,96164.28
2022-11-22T08:49:03.961Z,96142.00
2022-11-22T08:51:34.905Z,96157.06
2022-11-22T08:54:03.157Z,96152.97
2022-11-22T08:56:31.255Z,96156.50
2022-11-22T08:58:59.518Z,96151.25
2022-11-22T09:01:27.820Z,96140.16
2022-11-22T09:03:56.036Z,96161.41
2022-11-22T09:09:36.313Z,96163.66
2022-11-22T09:12:02.609Z,96155.88
2022-11-22T09:14:31.188Z,96153.28
2022-11-22T09:16:59.389Z,96121.00
2022-11-22T09:19:27.529Z,96145.44
2022-11-22T09:21:55.715Z,96149.66
2022-11-22T09:24:25.313Z,96143.50
2022-11-22T09:26:53.560Z,96150.25
2022-11-22T09:29:21.733Z,96150.31
2022-11-22T09:31:49.868Z,96137.22
2022-11-22T09:34:18.118Z,96129.19
2022-11-22T09:36:46.329Z,96106.97
2022-11-22T09:39:14.568Z,96123.69
2022-11-22T09:42:12.324Z,96118.31
2022-11-22T09:44:56.634Z,96120.47
2022-11-22T09:47:37.588Z,96126.31
2022-11-22T09:50:17.323Z,96118.72
2022-11-22T09:52:50.364Z,96071.81
2022-11-22T09:55:30.052Z,96108.50
2022-11-22T09:58:07.355Z,96102.41
2022-11-22T10:00:37.233Z,96091.91
2022-11-22T10:03:12.873Z,96066.97
2022-11-22T10:05:50.859Z,96087.28
2022-11-22T10:08:38.033Z,96054.94
2022-11-22T10:11:16.849Z,96081.91
2022-11-22T10:13:49.865Z,95991.44
2022-11-22T10:16:27.203Z,96101.69
2022-11-22T10:19:00.330Z,95998.53
2022-11-22T10:21:28.949Z,96030.38
2022-11-22T10:23:57.134Z,96023.28
2022-11-22T10:26:28.611Z,96002.22
2022-11-22T10:29:10.163Z,95989.34
2022-11-22T10:31:46.797Z,95988.38
2022-11-22T10:34:27.549Z,95984.94
2022-11-22T10:37:03.213Z,95989.75
2022-11-22T10:39:49.214Z,95990.59
2022-11-22T10:42:31.532Z,95963.78
2022-11-22T10:45:07.896Z,95987.66
2022-11-22T10:47:49.733Z,95959.34
2022-11-22T10:50:23.058Z,95975.97
2022-11-22T10:53:01.224Z,95971.66
2022-11-22T10:55:51.563Z,95955.03
2022-11-22T10:58:28.709Z,95943.78
2022-11-22T11:01:07.940Z,95896.91
2022-11-22T11:03:41.705Z,95933.31
2022-11-22T11:06:33.555Z,95934.13
2022-11-22T11:10:02.765Z,95932.19
2022-11-22T11:11:59.520Z,95919.47
2022-11-22T11:14:32.937Z,95932.56
2022-11-22T11:17:02.404Z,95858.31
2022-11-22T11:19:38.536Z,95922.88
2022-11-22T11:22:30.446Z,95922.53
2022-11-22T11:25:33.339Z,95917.69
2022-11-22T11:28:06.392Z,95924.16
2022-11-22T11:30:40.654Z,95910.78
2022-11-22T11:33:19.894Z,95869.91
2022-11-22T11:35:50.030Z,95937.47
2022-11-22T11:38:28.830Z,95907.09
2022-11-22T11:40:57.169Z,95927.38
2022-11-22T11:43:26.310Z,95920.50
2022-11-22T11:45:54.569Z,95918.56
2022-11-22T11:48:31.010Z,95919.50
2022-11-22T11:51:13.289Z,95921.34
2022-11-22T11:53:43.749Z,95937.72
2022-11-22T11:56:23.042Z,95928.97
2022-11-22T11:58:54.590Z,95907.84
2022-11-22T12:01:23.174Z,95902.69
2022-11-22T12:04:01.485Z,95906.31
2022-11-22T12:06:32.666Z,95936.44
2022-11-22T12:09:02.301Z,95937.34
2022-11-22T12:11:41.711Z,95934.03
2022-11-22T12:14:21.194Z,95853.50
2022-11-22T12:16:55.516Z,95930.53
2022-11-22T12:19:32.440Z,95810.28
2022-11-22T12:22:06.880Z,95938.19
2022-11-22T12:24:52.619Z,95948.50
2022-11-22T12:27:29.380Z,95940.25
2022-11-22T12:29:59.694Z,95889.56
2022-11-22T12:32:32.347Z,95953.88
2022-11-22T12:35:06.850Z,95970.81
2022-11-22T12:37:43.427Z,95968.75
2022-11-22T12:40:18.591Z,95974.69
2022-11-22T12:42:50.979Z,95983.22
2022-11-22T12:45:26.577Z,95978.88
2022-11-22T12:47:56.657Z,95985.97
2022-11-22T12:50:31.168Z,95987.03
2022-11-22T12:53:06.265Z,95986.44
2022-11-22T12:55:45.720Z,96007.75
2022-11-22T12:58:23.099Z,95994.59
2022-11-22T13:01:05.882Z,96019.66
2022-11-22T13:03:39.715Z,96013.94
2022-11-22T13:06:10.545Z,96010.66
2022-11-22T13:08:48.810Z,96008.63
2022-11-22T13:11:26.859Z,96019.81
2022-11-22T13:14:00.398Z,96011.91
2022-11-22T13:16:28.578Z,96027.44
2022-11-22T13:19:00.410Z,96012.41
2022-11-22T13:21:34.875Z,96010.75
2022-11-22T13:24:29.383Z,96024.44
2022-11-22T13:27:11.013Z,96017.03
2022-11-22T13:29:42.933Z,96020.38
2022-11-22T13:32:20.329Z,96018.78
2022-11-22T13:35:06.021Z,96031.97
2022-11-22T13:37:38.250Z,96018.78
2022-11-22T13:40:26.444Z,96013.50
2022-11-22T13:43:31.879Z,96012.94
2022-11-22T13:46:01.922Z,96005.25
2022-11-22T13:49:07.518Z,96000.31
2022-11-22T13:51:56.067Z,95997.03
2022-11-22T13:54:43.835Z,95986.84
2022-11-22T13:57:35.707Z,95987.13
2022-11-22T14:00:46.936Z,95977.13
2022-11-22T14:03:34.347Z,95988.13
2022-11-22T14:06:15.509Z,95985.41
2022-11-22T14:08:44.095Z,95975.22
2022-11-22T14:11:35.166Z,95976.81
2022-11-22T14:14:18.646Z,95976.69
2022-11-22T14:17:01.304Z,95916.59
2022-11-22T14:19:43.654Z,95966.59
2022-11-22T14:22:20.439Z,95957.84
2022-11-22T14:25:08.125Z,95956.00
2022-11-22T14:27:49.973Z,95951.78
2022-11-22T14:30:21.741Z,95839.47
2022-11-22T14:32:55.255Z,95524.88
2022-11-22T14:35:35.505Z,95934.72
2022-11-22T14:38:33.387Z,95935.38
2022-11-22T14:41:41.078Z,95940.56
2022-11-22T14:44:14.727Z,95946.38
2022-11-22T14:46:54.097Z,95884.28
2022-11-22T14:49:33.086Z,95940.06
2022-11-22T14:52:01.816Z,95940.69
2022-11-22T14:54:45.674Z,95935.19
2022-11-22T14:57:20.342Z,95942.03
2022-11-22T15:00:20.507Z,95941.41
2022-11-22T15:03:17.785Z,95938.84
2022-11-22T15:09:15.368Z,95871.09
2022-11-22T15:09:19.644Z,95935.28
2022-11-22T15:12:13.203Z,95910.13
2022-11-22T15:59:11.543Z,96004.38
2022-11-22T16:01:41.479Z,96024.00
2022-11-22T16:04:21.797Z,96011.59
2022-11-22T16:06:51.306Z,96027.09
2022-11-22T16:09:35.311Z,96018.88
2022-11-22T16:12:05.945Z,95820.56
2022-11-22T16:14:49.984Z,96007.81
2022-11-22T16:17:33.236Z,96008.53
2022-11-22T16:20:28.200Z,96007.88
2022-11-22T16:23:20.074Z,96010.59
2022-11-22T16:25:51.139Z,96087.69
2022-11-22T16:28:30.362Z,96016.69
2022-11-22T16:31:00.731Z,96015.03
2022-11-22T16:33:29.149Z,96017.56
2022-11-22T16:35:58.920Z,96015.19
2022-11-22T16:38:27.995Z,96017.91
2022-11-22T16:41:00.386Z,95998.31
2022-11-22T16:43:35.454Z,96014.41
2022-11-22T16:46:03.713Z,95997.72
2022-11-22T16:48:33.270Z,96028.41
2022-11-22T16:51:05.645Z,96008.25
2022-11-22T16:53:41.811Z,96018.25
2022-11-22T16:56:18.021Z,96025.81
2022-11-22T16:58:46.185Z,95987.75
2022-11-22T17:01:16.356Z,95912.53
2022-11-22T17:03:46.076Z,96009.75
2022-11-22T17:06:18.819Z,96029.13
2022-11-22T17:08:47.754Z,95990.06
2022-11-22T17:11:19.389Z,95905.25
2022-11-22T17:13:48.143Z,96025.88
2022-11-22T17:16:17.998Z,96034.53
2022-11-22T17:18:47.642Z,95996.22
2022-11-22T17:21:19.378Z,96033.63
2022-11-22T17:23:47.807Z,95991.63
2022-11-22T17:26:17.407Z,96028.22
2022-11-22T17:28:45.574Z,96034.22
2022-11-22T17:31:14.970Z,96028.13
2022-11-22T17:33:43.111Z,96035.09
2022-11-22T17:36:21.465Z,96022.38
2022-11-22T17:38:49.573Z,96019.78
2022-11-22T17:41:19.160Z,96026.00
2022-11-22T17:43:47.293Z,96008.03
2022-11-22T17:46:15.424Z,96002.97
2022-11-22T17:48:43.689Z,96002.19
2022-11-22T17:51:13.982Z,96011.03
2022-11-22T17:53:42.096Z,96010.38
2022-11-22T17:56:11.623Z,95966.41
2022-11-22T17:58:41.778Z,96001.69
2022-11-22T18:01:12.284Z,95997.34
2022-11-22T18:03:41.176Z,95993.00
2022-11-22T18:06:10.621Z,95931.72
2022-11-22T18:08:45.223Z,95892.09
2022-11-22T18:11:14.747Z,95973.97
2022-11-22T18:13:44.366Z,95973.88
2022-11-22T18:16:15.787Z,95973.22
2022-11-22T18:18:59.522Z,95974.13
2022-11-22T18:21:29.429Z,95940.06
2022-11-22T18:23:58.532Z,95961.53
2022-11-22T18:26:43.000Z,95971.91
2022-11-22T18:32:02.709Z,95953.09
2022-11-22T18:34:31.581Z,95947.28
2022-11-22T18:37:02.474Z,95955.97
2022-11-22T18:39:32.533Z,95956.06
2022-11-22T18:42:00.936Z,95951.75
2022-11-22T18:44:30.633Z,95906.72
2022-11-22T18:46:58.713Z,95914.44
2022-11-22T18:49:26.871Z,95913.16
2022-11-22T18:51:55.850Z,95944.59
2022-11-22T18:54:24.282Z,95946.97
2022-11-22T18:56:52.692Z,95953.75
2022-11-22T18:59:20.842Z,95952.13
2022-11-22T19:01:50.397Z,95945.19
2022-11-22T19:04:18.825Z,95949.38
2022-11-22T19:06:47.203Z,95955.47
2022-11-22T19:09:15.417Z,95962.34
2022-11-22T19:11:43.505Z,95934.78
2022-11-22T19:14:11.630Z,95927.06
2022-11-22T19:16:39.782Z,95944.56
2022-11-22T19:19:12.058Z,95948.28
2022-11-22T19:21:40.316Z,95914.38
2022-11-22T19:24:08.512Z,95959.44
2022-11-22T19:26:36.635Z,95957.53
2022-11-22T19:29:05.322Z,95959.22
2022-11-22T19:31:33.872Z,95959.16
2022-11-22T19:34:02.129Z,95942.94
2022-11-22T19:36:34.368Z,95959.16
2022-11-22T19:39:03.596Z,95960.91
2022-11-22T19:41:32.202Z,95961.03
2022-11-22T19:44:00.378Z,95959.34
2022-11-22T19:46:29.081Z,95959.75
2022-11-22T19:48:58.791Z,95954.81
2022-11-22T19:51:28.398Z,95964.22
2022-11-22T19:54:00.191Z,95961.63
2022-11-22T19:56:30.709Z,95966.81
2022-11-22T19:59:00.484Z,95949.81
2022-11-22T20:01:30.683Z,95955.47
2022-11-22T20:04:00.936Z,95951.34
2022-11-22T20:06:29.684Z,95962.59
2022-11-22T20:09:03.745Z,95961.63
2022-11-22T20:11:31.952Z,95959.88
2022-11-22T20:14:00.137Z,95965.91
2022-11-22T20:16:30.529Z,95950.59
2022-11-22T20:19:00.364Z,95954.16
2022-11-22T20:21:30.875Z,95950.75
2022-11-22T20:24:00.383Z,95966.75
2022-11-22T20:26:30.738Z,95969.47
2022-11-22T20:29:00.612Z,95966.94
2022-11-22T20:31:30.948Z,95961.78
2022-11-22T20:34:00.508Z,95965.22
2022-11-22T20:36:30.370Z,95987.84
2022-11-22T20:38:59.360Z,95912.75
2022-11-22T20:41:31.001Z,95977.47
2022-11-22T20:43:59.137Z,95981.69
2022-11-22T20:46:28.555Z,95965.59
2022-11-22T20:48:58.220Z,95981.75
2022-11-22T20:51:27.945Z,95983.44
2022-11-22T20:53:56.838Z,95987.72
2022-11-22T20:56:25.180Z,95977.03
2022-11-22T20:58:55.041Z,95994.84
2022-11-22T21:01:25.451Z,95987.00
2022-11-22T21:03:54.583Z,95982.41
2022-11-22T21:06:24.694Z,95995.84
2022-11-22T21:08:53.133Z,95857.50
2022-11-22T21:11:22.806Z,95950.81
2022-11-22T21:13:51.450Z,95976.38
2022-11-22T21:16:24.574Z,96022.38
2022-11-22T21:18:53.858Z,96019.09
2022-11-22T21:21:24.083Z,95992.69
2022-11-22T21:23:54.117Z,96018.16
2022-11-22T21:26:23.129Z,96027.56
2022-11-22T21:28:55.299Z,96013.66
2022-11-22T21:31:25.160Z,96024.97
2022-11-22T21:33:54.062Z,96013.59
2022-11-22T21:36:22.906Z,95992.19
2022-11-22T21:38:51.055Z,95880.34
2022-11-22T21:44:09.318Z,96012.66
2022-11-22T21:46:38.876Z,96017.91
2022-11-22T21:49:07.181Z,96012.84
2022-11-22T21:51:35.339Z,96020.63
2022-11-22T21:54:04.054Z,96012.97
2022-11-22T21:56:32.786Z,96004.41
2022-11-22T21:59:01.189Z,95838.38
2022-11-22T22:01:29.619Z,96029.25
2022-11-22T22:03:59.238Z,96028.41
2022-11-22T22:06:27.445Z,96010.66
2022-11-22T22:08:55.548Z,96036.00
2022-11-22T22:11:23.709Z,96035.16
2022-11-22T22:13:54.187Z,96031.84
2022-11-22T22:16:23.851Z,96040.69
2022-11-22T22:18:51.932Z,96027.69
2022-11-22T22:21:21.885Z,96045.03
2022-11-22T22:23:50.001Z,96038.06
2022-11-22T22:26:18.828Z,96022.03
2022-11-22T22:28:47.598Z,96021.22
2022-11-22T22:31:21.911Z,96041.41
2022-11-22T22:33:53.415Z,96038.88
2022-11-22T22:36:23.997Z,96038.91
2022-11-22T22:38:53.083Z,96017.06
2022-11-22T22:41:21.278Z,96033.97
2022-11-22T22:43:50.263Z,96014.41
2022-11-22T22:46:21.692Z,96033.16
2022-11-22T22:48:50.475Z,96032.97
2022-11-22T22:51:20.484Z,96028.69
2022-11-22T22:53:50.517Z,95977.88
2022-11-22T22:56:21.005Z,95882.03
2022-11-22T22:58:49.421Z,95945.78
2022-11-22T23:01:19.137Z,96017.66
2022-11-22T23:03:48.735Z,96024.28
2022-11-22T23:06:17.417Z,96032.03
2022-11-22T23:08:47.451Z,96023.81
2022-11-22T23:11:19.278Z,96036.28
2022-11-22T23:13:47.770Z,95868.09
2022-11-22T23:16:16.535Z,96035.94
2022-11-22T23:18:46.035Z,96036.66
2022-11-22T23:21:16.441Z,95997.94
2022-11-22T23:23:44.534Z,96034.03
2022-11-22T23:26:13.786Z,96036.66
2022-11-22T23:28:43.310Z,96031.38
2022-11-22T23:31:13.892Z,96033.00
2022-11-22T23:33:42.697Z,96032.03
2022-11-22T23:36:12.873Z,95887.97
2022-11-22T23:38:41.885Z,96034.72
2022-11-22T23:41:13.504Z,96032.09
2022-11-22T23:43:43.629Z,96052.84
2022-11-22T23:46:16.269Z,96021.69
2022-11-22T23:48:45.361Z,96010.66
2022-11-22T23:51:14.114Z,96030.22
2022-11-22T23:53:42.828Z,96037.94
2022-11-22T23:56:12.924Z,96035.47
2022-11-22T23:58:42.720Z,96034.56
